Toyo Maru — JI3710 — position and weather

sailwx.info

Track history (hours):
 
Tides and Currents Weather Stations Pressure Air Temp Water Temp Dewpoint Dewpoint Depression Visibility Wind Speed Wind Dir Waves Ship Positions

Toyo Maru

Last reported at 2015-Mar-03 21:32 UTC. Time now 2015-Mar-04 04:21 UTC.
Position N 35°33' E 139°58'.

Length 125 m; draft 6 m.

Type: Cargo ship. MMSI: 431401953.

Date/timePositionNaut miles runAvg speedWind from/ knotsBaromVisibWave heightAir tempDewpointWater temp
2015-Mar-03 21:32N 35°33' E 139°58'1515.3
2015-Mar-03 20:34N 35°22' E 139°45'1111.3
2015-Mar-03 19:34N 35°10' E 139°46'1615.6
2015-Mar-03 18:33N 34°59' E 139°34'238 9.5
2015-Mar-02 17:26N 33°56' E 134°56'236 4.5
2015-Feb-28 13:33N 34°58' E 139°32'1717.3
2015-Feb-28 12:33N 35°11' E 139°45'1313.2
2015-Feb-28 11:33N 35°24' E 139°43'15 1.1
2015-Feb-27 21:25N 35°33' E 139°58'1416.0
2015-Feb-27 20:33N 35°24' E 139°46'1010.0
2015-Feb-27 19:33N 35°14' E 139°47'1515.0
2015-Feb-27 18:32N 34°60' E 139°40'24710.1
2015-Feb-26 18:06N 34°05' E 134°48'  
2015-Feb-24 09:10N 35°11' E 139°46'712.3
2015-Feb-24 08:34N 35°19' E 139°44'1514.4
2015-Feb-24 07:33N 35°31' E 139°53'2 0.1
2015-Feb-23 17:33N 35°31' E 139°56'1514.9
2015-Feb-23 16:34N 35°20' E 139°44'1413.1
2015-Feb-23 15:30N 35°06' E 139°44'  
Track history (hours):
 
Tides and Currents Weather Stations Pressure Air Temp Water Temp Dewpoint Dewpoint Depression Visibility Wind Speed Wind Dir Waves Ship Positions

Toyo Maru

Last reported at 2015-Mar-03 21:32 UTC. Time now 2015-Mar-04 04:21 UTC.
Position N 35°33' E 139°58'.

Length 125 m; draft 6 m.

Type: Cargo ship. MMSI: 431401953.

Date/timePositionNaut miles runAvg speedWind from/ knotsBaromVisibWave heightAir tempDewpointWater temp
2015-Mar-03 21:32N 35°33' E 139°58'1515.3
2015-Mar-03 20:34N 35°22' E 139°45'1111.3
2015-Mar-03 19:34N 35°10' E 139°46'1615.6
2015-Mar-03 18:33N 34°59' E 139°34'238 9.5
2015-Mar-02 17:26N 33°56' E 134°56'236 4.5
2015-Feb-28 13:33N 34°58' E 139°32'1717.3
2015-Feb-28 12:33N 35°11' E 139°45'1313.2
2015-Feb-28 11:33N 35°24' E 139°43'15 1.1
2015-Feb-27 21:25N 35°33' E 139°58'1416.0
2015-Feb-27 20:33N 35°24' E 139°46'1010.0
2015-Feb-27 19:33N 35°14' E 139°47'1515.0
2015-Feb-27 18:32N 34°60' E 139°40'24710.1
2015-Feb-26 18:06N 34°05' E 134°48'  
2015-Feb-24 09:10N 35°11' E 139°46'712.3
2015-Feb-24 08:34N 35°19' E 139°44'1514.4
2015-Feb-24 07:33N 35°31' E 139°53'2 0.1
2015-Feb-23 17:33N 35°31' E 139°56'1514.9
2015-Feb-23 16:34N 35°20' E 139°44'1413.1
2015-Feb-23 15:30N 35°06' E 139°44'  

Dump ship's entire track history